Time;durP1;ratioP1;P1;durP2;ratioP2;P2;SDS_P1;SDS_P2;PMS_P1;PMS_P2;Temp;Humidity;BMP_temperature;BMP_pressure;BME280_temperature;BME280_humidity;BME280_pressure;Samples;Min_cycle;Max_cycle;Signal;HPM_P1;HPM_P2
2024/01/30 00:01:25;;;;;;;49.65;45.25;;;5.10;99.90;;;;;;6099700;23;20455;-74
2024/01/30 00:03:51;;;;;;;51.20;46.72;;;5.20;99.90;;;;;;6099753;23;20347;-74
2024/01/30 00:06:23;;;;;;;53.13;48.33;;;5.10;99.90;;;;;;6124447;23;20060;-73
2024/01/30 00:08:49;;;;;;;53.58;48.70;;;5.10;99.90;;;;;;6097546;23;20391;-75
2024/01/30 00:11:16;;;;;;;52.75;47.88;;;5.00;99.90;;;;;;6098735;23;20014;-73
2024/01/30 00:13:41;;;;;;;52.50;47.58;;;5.00;99.90;;;;;;6124431;23;20068;-74
2024/01/30 00:16:09;;;;;;;53.25;48.30;;;5.10;99.90;;;;;;6124552;23;20010;-74
2024/01/30 00:18:34;;;;;;;50.25;45.75;;;5.00;99.90;;;;;;6124305;23;20021;-74
2024/01/30 00:21:00;;;;;;;53.05;48.28;;;5.00;99.90;;;;;;6099836;23;20048;-74
2024/01/30 00:23:25;;;;;;;56.55;51.28;;;5.00;99.90;;;;;;6123983;23;20249;-74
2024/01/30 00:25:51;;;;;;;52.58;47.72;;;5.00;99.90;;;;;;6125035;23;20017;-73
2024/01/30 00:28:17;;;;;;;53.63;48.67;;;4.90;99.90;;;;;;6124266;23;20077;-74
2024/01/30 00:30:43;;;;;;;54.13;49.15;;;4.90;99.90;;;;;;6099668;23;20014;-74
2024/01/30 00:33:09;;;;;;;55.95;50.67;;;4.90;99.90;;;;;;6099071;23;20045;-73
2024/01/30 00:35:35;;;;;;;56.58;51.42;;;4.80;99.90;;;;;;6099126;23;20010;-74
2024/01/30 00:38:01;;;;;;;58.20;52.60;;;4.80;99.90;;;;;;6099231;23;20056;-73
2024/01/30 00:40:26;;;;;;;59.25;53.42;;;4.80;99.90;;;;;;6124033;23;20021;-74
2024/01/30 00:42:52;;;;;;;56.83;51.67;;;4.80;99.90;;;;;;6099041;23;20014;-74
2024/01/30 00:45:18;;;;;;;56.05;50.95;;;4.70;99.90;;;;;;6099088;23;20443;-73
2024/01/30 00:47:44;;;;;;;57.72;52.33;;;4.70;99.90;;;;;;6099000;23;20076;-74
2024/01/30 00:50:11;;;;;;;58.70;53.10;;;4.70;99.90;;;;;;6099524;23;20088;-73
2024/01/30 00:52:38;;;;;;;58.08;52.88;;;4.70;99.90;;;;;;6123708;23;20485;-74
2024/01/30 00:55:05;;;;;;;56.90;51.83;;;4.70;99.90;;;;;;6098780;23;20096;-75
2024/01/30 00:57:30;;;;;;;58.45;52.90;;;4.70;99.90;;;;;;6124439;23;20018;-75
2024/01/30 00:59:56;;;;;;;60.35;54.38;;;4.70;99.90;;;;;;6098495;23;20361;-76
2024/01/30 01:02:22;;;;;;;57.97;52.63;;;4.70;99.90;;;;;;6123828;23;20045;-76
2024/01/30 01:04:48;;;;;;;62.38;56.50;;;4.70;99.90;;;;;;6099424;23;20017;-76
2024/01/30 01:07:13;;;;;;;58.55;52.95;;;4.70;99.90;;;;;;6098689;23;20430;-76
2024/01/30 01:09:39;;;;;;;59.30;53.80;;;4.70;99.90;;;;;;6099307;23;20048;-76
2024/01/30 01:12:05;;;;;;;56.78;51.63;;;4.70;99.90;;;;;;6098763;23;20076;-75
2024/01/30 01:14:31;;;;;;;59.85;54.28;;;4.70;99.90;;;;;;6098726;23;20304;-75
2024/01/30 01:16:56;;;;;;;55.85;50.83;;;4.70;99.90;;;;;;6099003;23;20025;-76
2024/01/30 01:19:22;;;;;;;55.08;50.03;;;4.70;99.90;;;;;;6098824;23;20161;-75
2024/01/30 01:21:48;;;;;;;58.22;53.03;;;4.80;99.90;;;;;;6099202;23;20020;-75
2024/01/30 01:24:13;;;;;;;60.33;54.72;;;4.70;99.90;;;;;;6098396;23;20100;-76
2024/01/30 01:26:39;;;;;;;59.55;54.00;;;4.80;99.90;;;;;;6123369;23;20374;-76
2024/01/30 01:29:09;;;;;;;58.22;52.88;;;4.70;99.90;;;;;;6098944;23;20061;-76
2024/01/30 01:31:45;;;;;;;59.13;53.55;;;4.60;99.90;;;;;;6098858;23;20014;-76
2024/01/30 01:34:11;;;;;;;60.90;55.05;;;4.70;99.90;;;;;;6098626;23;20352;-76
2024/01/30 01:36:37;;;;;;;58.33;52.78;;;4.80;99.90;;;;;;6098169;23;20018;-76
2024/01/30 01:39:03;;;;;;;60.20;54.50;;;4.70;99.90;;;;;;6098787;23;20017;-76
2024/01/30 01:41:32;;;;;;;57.83;52.50;;;4.60;99.90;;;;;;6098935;23;20097;-75
2024/01/30 01:43:59;;;;;;;56.72;51.53;;;4.60;99.90;;;;;;6098417;23;20010;-76
2024/01/30 01:46:27;;;;;;;61.30;55.42;;;4.60;99.90;;;;;;6123402;23;20013;-76
2024/01/30 01:48:55;;;;;;;60.05;54.22;;;4.60;99.90;;;;;;6098785;23;20014;-76
2024/01/30 01:51:21;;;;;;;58.85;53.28;;;4.60;99.90;;;;;;6098739;23;20470;-76
2024/01/30 01:53:47;;;;;;;60.75;54.80;;;4.60;99.90;;;;;;6097735;23;20021;-76
2024/01/30 01:56:13;;;;;;;52.55;47.90;;;4.60;99.90;;;;;;6098502;23;20089;-76
2024/01/30 01:58:38;;;;;;;62.28;56.28;;;4.60;99.90;;;;;;6098844;23;20018;-76
2024/01/30 02:01:05;;;;;;;58.13;52.70;;;4.60;99.90;;;;;;6098741;23;20123;-76
2024/01/30 02:03:30;;;;;;;62.70;56.58;;;4.60;99.90;;;;;;6123452;23;20359;-75
2024/01/30 02:05:56;;;;;;;59.70;54.00;;;4.60;99.90;;;;;;6122524;23;20018;-75
2024/01/30 02:08:24;;;;;;;59.30;53.60;;;4.60;99.90;;;;;;6098670;23;20014;-76
2024/01/30 02:10:49;;;;;;;56.58;51.33;;;4.60;99.90;;;;;;6098639;23;20390;-76
2024/01/30 02:13:15;;;;;;;55.00;50.05;;;4.60;99.90;;;;;;6098342;23;20093;-76
2024/01/30 02:15:41;;;;;;;56.03;50.83;;;4.60;99.90;;;;;;6123150;23;20014;-75
2024/01/30 02:18:06;;;;;;;59.13;53.60;;;4.60;99.90;;;;;;6098011;23;20068;-76
2024/01/30 02:20:35;;;;;;;57.80;52.47;;;4.60;99.90;;;;;;6098637;23;20010;-76
2024/01/30 02:23:02;;;;;;;63.63;57.22;;;4.60;99.90;;;;;;6122934;23;20013;-76
2024/01/30 02:25:44;;;;;;;56.03;50.83;;;4.60;99.90;;;;;;6098216;23;20045;-76
2024/01/30 02:28:14;;;;;;;63.55;57.05;;;4.60;99.90;;;;;;6098989;23;20021;-76
2024/01/30 02:30:40;;;;;;;55.28;50.00;;;4.50;99.90;;;;;;6098643;23;20014;-76
2024/01/30 02:33:06;;;;;;;55.15;49.97;;;4.50;99.90;;;;;;6097628;23;20029;-76
2024/01/30 02:35:33;;;;;;;54.83;49.72;;;4.50;99.90;;;;;;6123122;23;20014;-76
2024/01/30 02:37:58;;;;;;;59.85;54.17;;;4.50;99.90;;;;;;6100090;23;20021;-75
2024/01/30 02:40:24;;;;;;;53.92;48.78;;;4.60;99.90;;;;;;6099591;23;20442;-75
2024/01/30 02:42:50;;;;;;;57.05;51.40;;;4.50;99.90;;;;;;6100705;23;20014;-76
2024/01/30 02:45:15;;;;;;;57.10;51.63;;;4.50;99.90;;;;;;6100099;23;20010;-75
2024/01/30 02:47:41;;;;;;;55.70;50.42;;;4.50;99.90;;;;;;6125166;23;20017;-75
2024/01/30 02:50:07;;;;;;;56.90;51.60;;;4.50;99.90;;;;;;6125133;23;20048;-75
2024/01/30 02:52:33;;;;;;;56.55;51.42;;;4.50;99.90;;;;;;6125015;23;20010;-76
2024/01/30 02:54:59;;;;;;;55.47;50.25;;;4.50;99.90;;;;;;6099873;23;20328;-75
2024/01/30 02:57:25;;;;;;;61.97;55.92;;;4.50;99.90;;;;;;6123969;23;20014;-76
2024/01/30 02:59:50;;;;;;;57.55;52.15;;;4.50;99.90;;;;;;6099138;23;20010;-76
2024/01/30 03:02:16;;;;;;;59.08;53.35;;;4.40;99.90;;;;;;6100140;23;20033;-76
2024/01/30 03:04:42;;;;;;;56.40;51.17;;;4.40;99.90;;;;;;6124488;23;20010;-76
2024/01/30 03:07:08;;;;;;;65.95;59.25;;;4.40;99.90;;;;;;6099964;23;20017;-76
2024/01/30 03:09:33;;;;;;;69.10;61.65;;;4.40;99.90;;;;;;6100040;23;20052;-76
2024/01/30 03:11:59;;;;;;;57.08;51.67;;;4.40;99.90;;;;;;6100820;23;20010;-75
2024/01/30 03:14:25;;;;;;;60.90;55.13;;;4.40;99.90;;;;;;6099737;23;20153;-76
2024/01/30 03:16:50;;;;;;;65.85;59.00;;;4.50;99.90;;;;;;6100720;23;20042;-75
2024/01/30 03:19:16;;;;;;;64.65;57.95;;;4.50;99.90;;;;;;6100079;23;20017;-75
2024/01/30 03:21:42;;;;;;;62.13;56.17;;;4.50;99.90;;;;;;6124419;23;20061;-75
2024/01/30 03:24:09;;;;;;;54.72;49.47;;;4.50;99.90;;;;;;6099633;23;20390;-75
2024/01/30 03:26:34;;;;;;;58.25;52.83;;;4.50;99.90;;;;;;6100368;23;20025;-76
2024/01/30 03:29:00;;;;;;;56.65;51.35;;;4.60;99.90;;;;;;6101094;23;20343;-76
2024/01/30 03:31:25;;;;;;;60.17;54.60;;;4.60;99.90;;;;;;6124343;23;20363;-76
2024/01/30 03:33:51;;;;;;;60.28;54.67;;;4.70;99.90;;;;;;6099441;23;20017;-76
2024/01/30 03:36:17;;;;;;;58.97;53.47;;;4.70;99.90;;;;;;6099327;23;20010;-76
2024/01/30 03:38:42;;;;;;;56.85;51.63;;;4.80;99.90;;;;;;6099883;23;20392;-76
2024/01/30 03:41:09;;;;;;;58.13;52.67;;;4.80;99.90;;;;;;6101382;23;20049;-76
2024/01/30 03:43:35;;;;;;;55.28;50.30;;;4.90;99.90;;;;;;6100955;23;20014;-76
2024/01/30 03:46:02;;;;;;;56.38;51.17;;;5.00;99.90;;;;;;6100248;23;20010;-75
2024/01/30 03:48:28;;;;;;;53.45;48.70;;;5.00;99.90;;;;;;6099816;23;20053;-76
2024/01/30 03:50:54;;;;;;;50.97;46.45;;;5.00;99.90;;;;;;6100175;23;20432;-76
2024/01/30 03:53:20;;;;;;;55.25;50.05;;;5.00;99.90;;;;;;6099897;23;20026;-76
2024/01/30 03:55:46;;;;;;;50.60;46.08;;;5.10;99.90;;;;;;6100361;23;20052;-76
2024/01/30 03:58:11;;;;;;;53.58;48.45;;;5.10;99.90;;;;;;6099927;23;20022;-75
2024/01/30 04:00:37;;;;;;;52.03;47.17;;;5.10;99.90;;;;;;6100405;23;20474;-75
2024/01/30 04:03:03;;;;;;;47.13;42.92;;;5.20;99.90;;;;;;6099253;23;20463;-75
2024/01/30 04:05:28;;;;;;;48.60;44.30;;;5.30;99.90;;;;;;6124363;23;20006;-75
2024/01/30 04:07:54;;;;;;;44.70;40.78;;;5.30;99.90;;;;;;6099548;23;20014;-76
2024/01/30 04:10:20;;;;;;;46.15;42.17;;;5.30;99.90;;;;;;6099712;23;20391;-76
2024/01/30 04:12:45;;;;;;;46.40;42.22;;;5.40;99.90;;;;;;6123428;23;20343;-76
2024/01/30 04:15:11;;;;;;;45.65;41.45;;;5.40;99.90;;;;;;6098995;23;20046;-76
2024/01/30 04:17:37;;;;;;;44.03;40.22;;;5.40;99.90;;;;;;6124040;23;20014;-76
2024/01/30 04:20:03;;;;;;;47.50;43.20;;;5.30;99.90;;;;;;6099358;23;20014;-76
2024/01/30 04:22:29;;;;;;;39.58;36.25;;;5.40;99.90;;;;;;6099966;23;20025;-76
2024/01/30 04:24:54;;;;;;;46.63;42.28;;;5.40;99.90;;;;;;6099740;23;20010;-76
2024/01/30 04:27:20;;;;;;;41.90;38.20;;;5.40;99.90;;;;;;6123370;23;20017;-76
2024/01/30 04:29:45;;;;;;;39.47;36.17;;;5.40;99.90;;;;;;6124420;23;20021;-76
2024/01/30 04:32:11;;;;;;;44.65;40.53;;;5.40;99.90;;;;;;6099740;23;20013;-75
2024/01/30 04:34:37;;;;;;;43.55;39.75;;;5.50;99.90;;;;;;6099339;23;20463;-75
2024/01/30 04:37:03;;;;;;;41.03;37.42;;;5.50;99.90;;;;;;6124356;23;20317;-75
2024/01/30 04:39:28;;;;;;;43.40;39.50;;;5.40;99.90;;;;;;6124366;23;20136;-76
2024/01/30 04:41:54;;;;;;;46.85;42.72;;;5.40;99.90;;;;;;6098809;23;20045;-76
2024/01/30 04:44:20;;;;;;;42.08;38.35;;;5.50;99.90;;;;;;6099526;23;20351;-76
2024/01/30 04:46:45;;;;;;;41.47;37.88;;;5.40;99.90;;;;;;6099126;23;20157;-76
2024/01/30 04:49:11;;;;;;;37.85;34.55;;;5.50;99.90;;;;;;6098915;23;20017;-76
2024/01/30 04:51:37;;;;;;;38.90;35.67;;;5.50;99.90;;;;;;6098878;23;20049;-76
2024/01/30 04:54:02;;;;;;;40.97;37.30;;;5.60;99.90;;;;;;6099168;23;20006;-76
2024/01/30 04:56:28;;;;;;;41.97;38.17;;;5.70;99.90;;;;;;6099333;23;20010;-76
2024/01/30 04:58:54;;;;;;;39.03;35.63;;;5.70;99.90;;;;;;6099427;23;20018;-76
2024/01/30 05:01:19;;;;;;;39.33;35.78;;;5.70;99.90;;;;;;6098579;23;20017;-76
2024/01/30 05:03:45;;;;;;;38.83;35.47;;;5.70;99.90;;;;;;6098821;23;20014;-76
2024/01/30 05:06:11;;;;;;;38.15;34.75;;;5.70;99.90;;;;;;6123374;23;20014;-76
2024/01/30 05:08:36;;;;;;;39.00;35.63;;;5.70;99.90;;;;;;6124265;23;20018;-76
2024/01/30 05:11:05;;;;;;;40.38;36.75;;;5.80;99.90;;;;;;6098885;23;20462;-76
2024/01/30 05:13:34;;;;;;;36.58;33.38;;;5.70;99.90;;;;;;6125318;23;20005;-76
2024/01/30 05:16:03;;;;;;;37.65;34.35;;;5.80;99.90;;;;;;6099987;23;20018;-76
2024/01/30 05:18:28;;;;;;;37.67;34.40;;;5.70;99.90;;;;;;6123294;23;20470;-76
2024/01/30 05:20:54;;;;;;;35.55;32.63;;;5.70;99.90;;;;;;6123224;23;20017;-76
2024/01/30 05:23:20;;;;;;;34.13;31.20;;;5.70;99.90;;;;;;6123134;23;20050;-76
2024/01/30 05:25:46;;;;;;;37.78;34.53;;;5.70;99.90;;;;;;6099804;23;20569;-76
2024/01/30 05:28:11;;;;;;;38.55;35.13;;;5.80;99.90;;;;;;6099643;23;20068;-76
2024/01/30 05:30:37;;;;;;;33.35;30.30;;;5.80;99.90;;;;;;6099794;23;20013;-76
2024/01/30 05:33:03;;;;;;;36.88;33.78;;;5.80;99.90;;;;;;6123338;23;20438;-76
2024/01/30 05:35:29;;;;;;;37.08;33.72;;;5.80;99.90;;;;;;6099152;23;20102;-76
2024/01/30 05:37:54;;;;;;;35.60;32.42;;;5.80;99.90;;;;;;6099249;23;20100;-76
2024/01/30 05:40:20;;;;;;;36.10;32.80;;;5.80;99.90;;;;;;6099633;23;20010;-76
2024/01/30 05:42:46;;;;;;;36.65;33.45;;;5.80;99.90;;;;;;6124954;23;20021;-76
2024/01/30 05:45:11;;;;;;;36.28;32.97;;;5.90;99.90;;;;;;6098902;23;20101;-76
2024/01/30 05:47:37;;;;;;;37.67;34.35;;;5.80;99.90;;;;;;6124098;23;20014;-76
2024/01/30 05:50:03;;;;;;;34.70;31.63;;;5.90;99.90;;;;;;6099659;23;20347;-76
2024/01/30 05:52:29;;;;;;;34.55;31.55;;;5.90;99.90;;;;;;6123538;23;20339;-76
2024/01/30 05:54:54;;;;;;;35.35;32.38;;;5.90;99.90;;;;;;6099757;23;20021;-76
2024/01/30 05:57:20;;;;;;;35.60;32.50;;;5.90;99.90;;;;;;6099098;23;20029;-76
2024/01/30 05:59:47;;;;;;;32.92;30.00;;;5.90;99.90;;;;;;6098148;23;20014;-76
2024/01/30 06:02:13;;;;;;;36.47;33.38;;;5.80;99.90;;;;;;6099463;23;20009;-76
2024/01/30 06:04:39;;;;;;;34.00;31.00;;;5.90;99.90;;;;;;6098409;23;20097;-76
2024/01/30 06:07:06;;;;;;;34.25;31.10;;;6.00;99.90;;;;;;6099392;23;20049;-76
2024/01/30 06:09:34;;;;;;;34.42;31.38;;;5.90;99.90;;;;;;6098435;23;20014;-76
2024/01/30 06:11:59;;;;;;;32.83;29.92;;;5.90;99.90;;;;;;6098662;23;20032;-76
2024/01/30 06:14:25;;;;;;;31.70;28.80;;;6.00;99.90;;;;;;6122393;23;20447;-76
2024/01/30 06:16:51;;;;;;;30.45;27.83;;;6.00;99.90;;;;;;6123809;23;20014;-76
2024/01/30 06:19:16;;;;;;;30.17;27.67;;;6.00;99.90;;;;;;6100090;23;20447;-76
2024/01/30 06:21:42;;;;;;;28.83;26.33;;;6.10;99.90;;;;;;6099296;23;20010;-76
2024/01/30 06:24:07;;;;;;;30.13;27.45;;;6.10;99.90;;;;;;6098510;23;20116;-76
2024/01/30 06:26:34;;;;;;;27.38;25.10;;;6.20;99.90;;;;;;6098366;23;20507;-76
2024/01/30 06:28:59;;;;;;;30.50;27.63;;;6.20;99.90;;;;;;6098631;23;20195;-76
2024/01/30 06:31:25;;;;;;;31.55;28.75;;;6.20;99.90;;;;;;6075240;23;20020;-76
2024/01/30 06:33:51;;;;;;;30.85;28.10;;;6.30;99.90;;;;;;6098664;23;20014;-76
2024/01/30 06:36:16;;;;;;;30.02;27.42;;;6.40;99.90;;;;;;6123224;23;20020;-76
2024/01/30 06:38:42;;;;;;;30.50;27.75;;;6.40;99.90;;;;;;6122960;23;20045;-76
2024/01/30 06:41:08;;;;;;;30.25;27.55;;;6.40;99.90;;;;;;6123157;23;20014;-76
2024/01/30 06:43:33;;;;;;;31.17;28.33;;;6.40;99.90;;;;;;6122838;23;20010;-76
2024/01/30 06:45:59;;;;;;;28.50;25.98;;;6.50;99.90;;;;;;6098530;23;20088;-76
2024/01/30 06:48:25;;;;;;;29.35;26.65;;;6.40;99.90;;;;;;6098245;23;20127;-76
2024/01/30 06:50:53;;;;;;;28.00;25.42;;;6.50;99.90;;;;;;6098732;23;20085;-76
2024/01/30 06:53:19;;;;;;;29.40;26.75;;;6.50;99.90;;;;;;6097483;23;20010;-76
2024/01/30 06:55:45;;;;;;;26.63;24.33;;;6.60;99.90;;;;;;6098249;23;20490;-76
2024/01/30 06:58:10;;;;;;;30.65;27.95;;;6.60;99.90;;;;;;6098325;23;20502;-76
2024/01/30 07:00:36;;;;;;;28.15;25.50;;;6.60;99.90;;;;;;6122725;23;20037;-77
2024/01/30 07:03:02;;;;;;;29.98;27.25;;;6.70;99.90;;;;;;6097180;23;20056;-76
2024/01/30 07:05:27;;;;;;;29.55;26.88;;;6.60;99.90;;;;;;6122852;23;20045;-76
2024/01/30 07:07:53;;;;;;;30.40;27.70;;;6.70;99.90;;;;;;6098743;23;20020;-77
2024/01/30 07:10:19;;;;;;;30.08;27.23;;;6.60;99.90;;;;;;6098024;23;20033;-76
2024/01/30 07:12:44;;;;;;;29.75;27.05;;;6.70;99.90;;;;;;6123730;23;20041;-76
2024/01/30 07:15:10;;;;;;;30.08;27.35;;;6.60;99.90;;;;;;6098579;23;20356;-76
2024/01/30 07:17:37;;;;;;;28.42;25.88;;;6.70;99.90;;;;;;6099023;23;20061;-76
2024/01/30 07:20:06;;;;;;;29.75;27.08;;;6.70;99.90;;;;;;6123886;23;20018;-76
2024/01/30 07:22:35;;;;;;;28.40;25.75;;;6.70;99.90;;;;;;6100197;23;20348;-78
2024/01/30 07:25:04;;;;;;;28.55;26.05;;;6.70;99.90;;;;;;6126185;23;20013;-78
2024/01/30 07:27:35;;;;;;;28.20;25.67;;;6.70;99.90;;;;;;6100722;23;20443;-79
2024/01/30 07:30:04;;;;;;;27.98;25.38;;;6.60;99.90;;;;;;6124773;23;20085;-79
2024/01/30 07:32:37;;;;;;;28.35;25.83;;;6.80;99.90;;;;;;6099770;23;20568;-80
2024/01/30 07:35:04;;;;;;;28.70;26.05;;;6.80;99.90;;;;;;6124623;23;20018;-79
2024/01/30 07:37:30;;;;;;;28.48;25.98;;;6.80;99.90;;;;;;6100112;23;20546;-80
2024/01/30 07:39:59;;;;;;;27.65;25.15;;;6.80;99.90;;;;;;6099506;23;20346;-80
2024/01/30 07:42:30;;;;;;;27.42;25.02;;;6.90;99.90;;;;;;6100290;23;20014;-79
2024/01/30 07:45:26;;;;;;;27.67;25.08;;;6.90;99.90;;;;;;6099568;23;20018;-79
2024/01/30 07:47:59;;;;;;;26.35;24.05;;;6.90;99.90;;;;;;6124013;23;20018;-75
2024/01/30 07:50:25;;;;;;;27.75;25.35;;;6.90;99.90;;;;;;6100247;23;20014;-76
2024/01/30 07:52:54;;;;;;;26.08;23.77;;;6.90;99.90;;;;;;6100945;23;20010;-77
2024/01/30 07:55:24;;;;;;;26.13;23.70;;;7.00;99.90;;;;;;6125948;23;20016;-76
2024/01/30 07:57:51;;;;;;;27.42;25.02;;;7.00;99.90;;;;;;6128143;23;20359;-77
2024/01/30 08:00:19;;;;;;;26.77;24.10;;;7.00;99.90;;;;;;6101795;23;20014;-76
2024/01/30 08:02:45;;;;;;;25.35;23.00;;;7.00;99.90;;;;;;6102444;23;20018;-79
2024/01/30 08:05:11;;;;;;;25.45;23.00;;;7.00;99.90;;;;;;6124614;23;20010;-75
2024/01/30 08:07:37;;;;;;;24.33;21.90;;;7.10;99.90;;;;;;6100798;23;20029;-77
2024/01/30 08:10:02;;;;;;;25.45;23.15;;;7.20;99.90;;;;;;6100388;23;20010;-76
2024/01/30 08:12:28;;;;;;;24.25;22.05;;;7.20;99.90;;;;;;6102137;23;20017;-76
2024/01/30 08:14:54;;;;;;;25.30;23.02;;;7.20;99.90;;;;;;6101546;23;20387;-76
2024/01/30 08:17:19;;;;;;;25.23;22.95;;;7.30;99.90;;;;;;6125133;23;20025;-76
2024/01/30 08:19:45;;;;;;;23.27;21.13;;;7.30;99.90;;;;;;6125731;23;20049;-77
2024/01/30 08:22:12;;;;;;;22.92;20.83;;;7.40;99.90;;;;;;6124032;23;20346;-76
2024/01/30 08:24:40;;;;;;;23.88;21.58;;;7.40;99.90;;;;;;6122277;23;20343;-77
2024/01/30 08:27:06;;;;;;;22.15;20.20;;;7.40;99.90;;;;;;6096737;23;20343;-77
2024/01/30 08:29:32;;;;;;;21.85;19.80;;;7.50;99.90;;;;;;6097219;23;20302;-77
2024/01/30 08:31:59;;;;;;;22.48;20.48;;;7.60;99.90;;;;;;6096519;23;20318;-78
2024/01/30 08:34:24;;;;;;;21.85;19.92;;;7.60;99.90;;;;;;6120744;23;20046;-77
2024/01/30 08:36:53;;;;;;;20.85;18.95;;;7.70;99.90;;;;;;6096995;23;20010;-78
2024/01/30 08:39:21;;;;;;;20.80;18.98;;;7.70;99.90;;;;;;6123823;23;20014;-77
2024/01/30 08:41:47;;;;;;;22.63;20.45;;;7.80;99.90;;;;;;6099084;23;20014;-77
2024/01/30 08:44:12;;;;;;;21.85;19.75;;;7.80;99.90;;;;;;6122167;23;20064;-77
2024/01/30 08:46:38;;;;;;;20.33;18.20;;;7.90;99.90;;;;;;6123281;23;20014;-77
2024/01/30 08:49:04;;;;;;;21.30;19.17;;;7.90;99.90;;;;;;6099074;23;20104;-77
2024/01/30 08:51:30;;;;;;;19.95;18.15;;;8.00;99.90;;;;;;6123046;23;20025;-77
2024/01/30 08:53:56;;;;;;;21.00;18.98;;;8.00;99.90;;;;;;6098879;23;20068;-78
2024/01/30 08:56:25;;;;;;;20.13;18.30;;;8.00;99.90;;;;;;6099439;23;20267;-78
2024/01/30 08:58:51;;;;;;;21.42;19.30;;;8.00;99.90;;;;;;6098848;23;20010;-76
2024/01/30 09:01:16;;;;;;;20.70;17.95;;;8.10;99.90;;;;;;6098834;23;20383;-76
2024/01/30 09:03:45;;;;;;;21.05;19.15;;;8.20;99.90;;;;;;6098749;23;20375;-76
2024/01/30 09:06:11;;;;;;;21.70;19.42;;;8.20;99.90;;;;;;6123994;23;20006;-76
2024/01/30 09:08:37;;;;;;;20.45;18.50;;;8.30;99.90;;;;;;6123845;23;20018;-76
2024/01/30 09:11:10;;;;;;;21.33;19.40;;;8.40;99.90;;;;;;6099610;23;20009;-76
2024/01/30 09:13:36;;;;;;;21.02;19.00;;;8.50;99.90;;;;;;6098907;23;20021;-76
2024/01/30 09:16:02;;;;;;;20.00;18.27;;;8.60;99.90;;;;;;6123853;23;20092;-76
2024/01/30 09:18:28;;;;;;;20.80;18.90;;;8.60;99.90;;;;;;6098357;23;20045;-76
2024/01/30 09:20:57;;;;;;;19.77;18.08;;;8.70;99.90;;;;;;6123109;23;20077;-76
2024/01/30 09:23:23;;;;;;;19.98;17.98;;;8.80;99.90;;;;;;6098552;23;20037;-76
2024/01/30 09:25:49;;;;;;;18.77;16.80;;;8.90;99.90;;;;;;6098839;23;20381;-77
2024/01/30 09:28:14;;;;;;;19.77;17.77;;;9.00;99.90;;;;;;6098863;23;20018;-78
2024/01/30 09:30:40;;;;;;;19.40;17.60;;;9.10;99.90;;;;;;6099515;23;20018;-77
2024/01/30 09:33:07;;;;;;;18.63;16.85;;;9.10;99.90;;;;;;6074903;23;20029;-78
2024/01/30 09:35:37;;;;;;;18.27;16.58;;;9.10;99.90;;;;;;6098718;23;20017;-78
2024/01/30 09:38:05;;;;;;;17.80;16.10;;;9.20;99.90;;;;;;6099125;23;20014;-78
2024/01/30 09:40:31;;;;;;;18.63;16.70;;;9.30;99.90;;;;;;6097237;23;20105;-79
2024/01/30 09:43:05;;;;;;;19.48;17.50;;;9.30;99.90;;;;;;6097865;23;20392;-78
2024/01/30 09:45:35;;;;;;;18.17;16.27;;;9.40;99.90;;;;;;6098795;23;20014;-79
2024/01/30 09:48:03;;;;;;;17.88;16.20;;;9.50;99.90;;;;;;6123442;23;20014;-79
2024/01/30 09:50:38;;;;;;;18.90;17.00;;;9.50;99.90;;;;;;6098214;23;20475;-79
2024/01/30 09:53:04;;;;;;;18.30;16.50;;;9.50;99.90;;;;;;6099110;23;20014;-79
2024/01/30 09:55:31;;;;;;;17.92;16.10;;;9.50;99.90;;;;;;6099720;23;20025;-79
2024/01/30 09:57:57;;;;;;;18.42;16.60;;;9.60;99.90;;;;;;6098945;23;20018;-78
2024/01/30 10:00:27;;;;;;;18.45;16.58;;;9.60;99.90;;;;;;6122971;23;20334;-77
2024/01/30 10:02:55;;;;;;;18.38;16.25;;;9.70;99.90;;;;;;6098296;23;20510;-77
2024/01/30 10:05:33;;;;;;;20.40;17.02;;;9.70;99.90;;;;;;6098743;23;20072;-77
2024/01/30 10:08:00;;;;;;;18.27;16.33;;;9.70;99.90;;;;;;6122838;23;20021;-77
2024/01/30 10:10:28;;;;;;;19.95;17.40;;;9.70;99.90;;;;;;6122700;23;20010;-77
2024/01/30 10:12:54;;;;;;;18.20;16.48;;;9.80;99.90;;;;;;6098482;23;20010;-78
2024/01/30 10:15:27;;;;;;;17.92;15.85;;;9.90;99.90;;;;;;6099122;23;20013;-77
2024/01/30 10:17:54;;;;;;;16.85;15.18;;;9.90;99.90;;;;;;6123038;23;20447;-76
2024/01/30 10:20:22;;;;;;;18.13;16.30;;;10.00;99.90;;;;;;6098198;23;20110;-76
2024/01/30 10:22:48;;;;;;;17.85;16.15;;;10.00;99.90;;;;;;6098722;23;20021;-77
2024/01/30 10:25:16;;;;;;;18.27;16.35;;;10.00;99.90;;;;;;6098172;23;20010;-76
2024/01/30 10:27:42;;;;;;;17.48;15.75;;;10.10;99.90;;;;;;6122164;23;20373;-76
2024/01/30 10:30:09;;;;;;;19.33;16.40;;;10.10;99.90;;;;;;6122767;23;20021;-77
2024/01/30 10:32:35;;;;;;;18.50;16.58;;;10.10;99.90;;;;;;6123023;23;20049;-76
2024/01/30 10:35:04;;;;;;;18.85;16.85;;;10.10;99.90;;;;;;6098285;23;20014;-77
2024/01/30 10:37:33;;;;;;;19.55;17.55;;;10.10;99.90;;;;;;6122916;23;20145;-76
2024/01/30 10:40:05;;;;;;;18.80;16.80;;;10.20;99.90;;;;;;6098758;23;20025;-76
2024/01/30 10:42:32;;;;;;;20.08;18.00;;;10.20;99.90;;;;;;6098214;23;20025;-76
2024/01/30 10:45:12;;;;;;;19.58;17.67;;;10.20;99.90;;;;;;6121934;23;20470;-76
2024/01/30 10:47:43;;;;;;;19.60;17.70;;;10.20;99.90;;;;;;6098510;23;20018;-76
2024/01/30 10:50:10;;;;;;;22.58;18.73;;;10.20;99.90;;;;;;6098555;23;20068;-77
2024/01/30 10:52:39;;;;;;;20.52;18.00;;;10.10;99.90;;;;;;6097817;23;20021;-76
2024/01/30 10:55:08;;;;;;;21.70;19.10;;;10.10;99.90;;;;;;6098263;23;20603;-76
2024/01/30 10:57:40;;;;;;;21.98;19.42;;;10.20;99.90;;;;;;6098779;23;20329;-76
2024/01/30 11:00:12;;;;;;;22.30;19.65;;;10.30;99.90;;;;;;6099641;23;20096;-76
2024/01/30 11:02:44;;;;;;;21.75;19.58;;;10.30;99.90;;;;;;6125409;23;20021;-76
2024/01/30 11:05:11;;;;;;;21.80;19.63;;;10.50;99.90;;;;;;6100055;23;20014;-76
2024/01/30 11:07:43;;;;;;;21.73;19.10;;;10.50;99.90;;;;;;6100921;23;20088;-77
2024/01/30 11:10:14;;;;;;;22.63;19.02;;;10.60;99.90;;;;;;6101417;23;20009;-77
2024/01/30 11:12:43;;;;;;;21.27;19.23;;;10.60;99.90;;;;;;6100003;23;20018;-77
2024/01/30 11:15:10;;;;;;;20.42;18.33;;;10.60;99.90;;;;;;6101017;23;20018;-76
2024/01/30 11:17:51;;;;;;;19.33;17.38;;;10.70;99.90;;;;;;6100298;23;20489;-76
2024/01/30 11:20:19;;;;;;;20.45;18.27;;;10.60;99.90;;;;;;6100773;23;20431;-76
2024/01/30 11:22:47;;;;;;;20.17;18.23;;;10.60;99.90;;;;;;6124647;23;20022;-76
2024/01/30 11:25:17;;;;;;;19.33;17.52;;;10.70;99.90;;;;;;6123606;23;20395;-76
2024/01/30 11:27:44;;;;;;;20.33;17.48;;;10.70;99.90;;;;;;6123923;23;20018;-77
2024/01/30 11:30:11;;;;;;;18.92;16.95;;;10.70;99.90;;;;;;6100672;23;20010;-76
2024/01/30 11:32:37;;;;;;;20.17;18.13;;;10.70;99.90;;;;;;6124655;23;20017;-78
2024/01/30 11:35:10;;;;;;;18.90;17.13;;;10.70;99.90;;;;;;6099518;23;20025;-78
2024/01/30 11:37:40;;;;;;;19.25;17.33;;;10.80;99.90;;;;;;6125403;23;20022;-78
2024/01/30 11:40:14;;;;;;;;;;;10.90;99.90;;;;;;6124423;23;20341;-76
2024/01/30 11:42:42;;;;;;;17.17;15.43;;;11.10;99.90;;;;;;6124214;23;19967;-76
2024/01/30 11:45:11;;;;;;;15.38;13.73;;;11.10;99.90;;;;;;6124336;23;20073;-76
2024/01/30 11:47:41;;;;;;;16.45;14.77;;;11.30;99.90;;;;;;6124455;23;20084;-76
2024/01/30 11:50:10;;;;;;;16.40;14.63;;;11.30;99.90;;;;;;6099825;23;20020;-77
2024/01/30 11:52:36;;;;;;;16.10;14.40;;;11.40;99.90;;;;;;6099738;23;20021;-76
2024/01/30 11:55:05;;;;;;;15.25;13.85;;;11.40;99.90;;;;;;6099589;23;20473;-76
2024/01/30 11:57:35;;;;;;;15.77;14.10;;;11.40;99.90;;;;;;6100172;23;20017;-76
2024/01/30 12:00:14;;;;;;;15.20;13.60;;;11.40;99.90;;;;;;6099879;23;20084;-76
2024/01/30 12:02:40;;;;;;;13.63;12.40;;;11.40;99.90;;;;;;6099695;23;20025;-76
2024/01/30 12:05:09;;;;;;;14.30;12.80;;;11.30;99.90;;;;;;6099817;23;20123;-77
2024/01/30 12:07:36;;;;;;;14.73;12.73;;;11.30;99.90;;;;;;6099730;23;20121;-77
2024/01/30 12:10:02;;;;;;;17.15;13.93;;;11.20;99.90;;;;;;6099502;23;20010;-76
2024/01/30 12:12:32;;;;;;;16.10;14.52;;;11.00;99.90;;;;;;6122835;23;20069;-76
2024/01/30 12:14:58;;;;;;;14.68;11.90;;;10.90;99.90;;;;;;6123731;23;20471;-76
2024/01/30 12:17:30;;;;;;;15.27;12.60;;;10.90;99.90;;;;;;6099763;23;20018;-76
2024/01/30 12:20:12;;;;;;;15.10;12.02;;;10.90;99.90;;;;;;6099408;23;20017;-76
2024/01/30 12:22:41;;;;;;;14.25;10.27;;;11.00;99.90;;;;;;6099005;23;20018;-76
2024/01/30 12:25:15;;;;;;;13.80;10.63;;;11.00;99.90;;;;;;6099448;23;20018;-76
2024/01/30 12:27:52;;;;;;;13.48;9.77;;;10.90;99.90;;;;;;6099618;23;20014;-77
2024/01/30 12:30:20;;;;;;;14.18;9.70;;;10.90;99.90;;;;;;6099432;23;20014;-76
2024/01/30 12:32:47;;;;;;;13.50;8.80;;;10.90;99.90;;;;;;6099574;23;20447;-76
2024/01/30 12:35:20;;;;;;;12.15;8.20;;;10.80;99.90;;;;;;6099511;23;20110;-77